Hollins College, Virginia
Current Conditions -  °F | °C
As of 7:54 AM on Tuesday 21 Oct 2014 (Local Time) from KROA Reporting Station
Few Clouds Few Clouds  
Wind Chill: 10°   Ceiling: Unl
Heat Index: 10°   Visibility: 10mi
Dew Point:   Wind: 7mph
Humidity: 83%   Direction: 270°W
Pressure: 29.94"   Gusts: NA
Location:  37.3533°N, 79.9353°W
Report Text: KROA 211154Z 27006KT 10SM FEW055 FEW150 10/07 A2994 RMK AO2 SLP134 60000 T01000072 10139 20089 51003
Loading
Personal Weather Stations






























Interactive Weather Map
Tropical Storm Tracking
New forecast layout! Learn more

10-Day Weather Forecast

Advertisements
Track Severe Weather on mobile